Time,TemperatureF,DewpointF,PressureIn,WindDirection,WindDirectionDegrees,WindSpeedMPH,WindSpeedGustMPH,Humidity,HourlyPrecipIn,Conditions,Clouds,dailyrainin,SoftwareType,DateUTC
2013-04-01 00:00:00,42.2,42.2,29.66,North,-999,0.0,0.0,100,0.00,,,-99.99,WeatherLink 5.7,2013-04-01 04:00:00,
2013-04-01 00:30:00,42.0,42.0,29.66,North,-999,0.0,0.0,100,0.00,,,-99.99,WeatherLink 5.7,2013-04-01 04:30:00,
2013-04-01 01:00:00,41.9,41.9,29.64,North,-999,0.0,1.0,100,0.00,,,-99.99,WeatherLink 5.7,2013-04-01 05:00:00,
2013-04-01 01:30:00,41.7,41.7,29.64,North,-999,0.0,0.0,100,0.00,,,-99.99,WeatherLink 5.7,2013-04-01 05:30:00,
2013-04-01 02:00:00,41.3,41.3,29.64,North,-999,0.0,0.0,100,0.00,,,-99.99,WeatherLink 5.7,2013-04-01 06:00:00,
2013-04-01 02:30:00,40.6,40.6,29.64,North,-999,0.0,0.0,100,0.00,,,-99.99,WeatherLink 5.7,2013-04-01 06:30:00,
2013-04-01 03:00:00,38.7,38.7,29.65,North,-999,0.0,0.0,100,0.00,,,-99.99,WeatherLink 5.7,2013-04-01 07:00:00,
2013-04-01 03:30:00,37.1,37.1,29.66,North,-999,0.0,0.0,100,0.00,,,-99.99,WeatherLink 5.7,2013-04-01 07:30:00,
2013-04-01 04:00:00,37.5,37.5,29.66,North,-999,0.0,0.0,100,0.00,,,-99.99,WeatherLink 5.7,2013-04-01 08:00:00,
2013-04-01 04:30:00,38.7,38.7,29.66,North,-999,0.0,0.0,100,0.00,,,-99.99,WeatherLink 5.7,2013-04-01 08:30:00,
2013-04-01 05:00:00,40.4,40.4,29.67,NE,45,0.0,2.0,100,0.00,,,-99.99,WeatherLink 5.7,2013-04-01 09:00:00,
2013-04-01 05:30:00,40.4,40.4,29.67,North,-999,0.0,0.0,100,0.00,,,-99.99,WeatherLink 5.7,2013-04-01 09:30:00,
2013-04-01 06:00:00,37.8,37.8,29.66,North,-999,0.0,0.0,100,0.00,,,-99.99,WeatherLink 5.7,2013-04-01 10:00:00,
2013-04-01 06:30:00,35.9,35.9,29.66,North,-999,0.0,0.0,100,0.00,,,-99.99,WeatherLink 5.7,2013-04-01 10:30:00,
2013-04-01 07:00:00,36.5,36.5,29.66,North,-999,0.0,0.0,100,0.00,,,-99.99,WeatherLink 5.7,2013-04-01 11:00:00,
2013-04-01 07:30:00,41.2,41.2,29.65,North,-999,0.0,0.0,100,0.00,,,-99.99,WeatherLink 5.7,2013-04-01 11:30:00,
2013-04-01 08:00:00,43.5,43.5,29.65,North,-999,0.0,0.0,100,0.00,,,-99.99,WeatherLink 5.7,2013-04-01 12:00:00,
2013-04-01 08:30:00,44.5,44.5,29.64,NE,45,0.0,2.0,100,0.00,,,-99.99,WeatherLink 5.7,2013-04-01 12:30:00,
2013-04-01 09:00:00,45.5,45.5,29.63,NNW,337,0.0,4.0,100,0.00,,,-99.99,WeatherLink 5.7,2013-04-01 13:00:00,
2013-04-01 09:30:00,47.4,47.4,29.62,West,270,1.0,5.0,100,0.00,,,-99.99,WeatherLink 5.7,2013-04-01 13:30:00,
2013-04-01 10:00:00,50.0,49.2,29.61,SW,225,2.0,7.0,97,0.00,,,-99.99,WeatherLink 5.7,2013-04-01 14:00:00,
2013-04-01 10:30:00,51.4,48.3,29.60,SW,225,3.0,8.0,89,0.00,,,-99.99,WeatherLink 5.7,2013-04-01 14:30:00,
2013-04-01 11:00:00,53.8,48.4,29.59,SW,225,3.0,7.0,82,0.00,,,-99.99,WeatherLink 5.7,2013-04-01 15:00:00,
2013-04-01 11:30:00,56.9,48.0,29.58,SW,225,3.0,8.0,72,0.00,,,-99.99,WeatherLink 5.7,2013-04-01 15:30:00,
2013-04-01 12:00:00,58.6,47.3,29.58,SW,225,4.0,8.0,66,0.00,,,-99.99,WeatherLink 5.7,2013-04-01 16:00:00,
2013-04-01 12:30:00,55.6,44.0,29.61,WSW,247,5.0,17.0,65,0.00,,,-99.99,WeatherLink 5.7,2013-04-01 16:30:00,
2013-04-01 13:00:00,53.2,41.7,29.61,WSW,247,4.0,12.0,65,0.00,,,-99.99,WeatherLink 5.7,2013-04-01 17:00:00,
2013-04-01 13:30:00,52.8,40.1,29.61,West,270,4.0,13.0,62,0.00,,,-99.99,WeatherLink 5.7,2013-04-01 17:30:00,
2013-04-01 14:00:00,52.3,39.7,29.63,West,270,4.0,11.0,62,0.00,,,-99.99,WeatherLink 5.7,2013-04-01 18:00:00,
2013-04-01 14:30:00,49.2,37.1,29.67,West,270,4.0,11.0,63,0.00,,,-99.99,WeatherLink 5.7,2013-04-01 18:30:00,
2013-04-01 15:00:00,46.4,34.5,29.68,WSW,247,3.0,9.0,63,0.00,,,-99.99,WeatherLink 5.7,2013-04-01 19:00:00,
2013-04-01 15:30:00,45.9,32.8,29.70,West,270,3.0,11.0,60,0.00,,,-99.99,WeatherLink 5.7,2013-04-01 19:30:00,
2013-04-01 16:00:00,46.1,33.0,29.70,West,270,3.0,12.0,60,0.00,,,-99.99,WeatherLink 5.7,2013-04-01 20:00:00,
2013-04-01 16:30:00,46.5,30.3,29.70,WSW,247,3.0,10.0,53,0.00,,,-99.99,WeatherLink 5.7,2013-04-01 20:30:00,
2013-04-01 17:00:00,46.8,28.6,29.70,WSW,247,3.0,12.0,49,0.00,,,-99.99,WeatherLink 5.7,2013-04-01 21:00:00,
2013-04-01 17:30:00,45.9,26.3,29.73,West,270,4.0,14.0,46,0.00,,,-99.99,WeatherLink 5.7,2013-04-01 21:30:00,
2013-04-01 18:00:00,44.0,25.5,29.75,West,270,3.0,11.0,48,0.00,,,-99.99,WeatherLink 5.7,2013-04-01 22:00:00,
2013-04-01 18:30:00,41.7,21.9,29.76,West,270,3.0,14.0,45,0.00,,,-99.99,WeatherLink 5.7,2013-04-01 22:30:00,
2013-04-01 19:00:00,40.3,19.5,29.79,West,270,4.0,13.0,43,0.00,,,-99.99,WeatherLink 5.7,2013-04-01 23:00:00,
2013-04-01 19:30:00,39.0,14.9,29.81,West,270,4.0,17.0,37,0.00,,,-99.99,WeatherLink 5.7,2013-04-01 23:30:00,
2013-04-01 20:00:00,37.7,15.5,29.83,WSW,247,2.0,12.0,40,0.00,,,-99.99,WeatherLink 5.7,2013-04-02 00:00:00,
2013-04-01 20:30:00,36.8,16.4,29.84,WSW,247,3.0,9.0,43,0.00,,,-99.99,WeatherLink 5.7,2013-04-02 00:30:00,
2013-04-01 21:00:00,36.1,16.8,29.86,WNW,292,3.0,11.0,45,0.00,,,-99.99,WeatherLink 5.7,2013-04-02 01:00:00,
2013-04-01 21:30:00,35.5,18.2,29.86,WSW,247,3.0,10.0,49,0.00,,,-99.99,WeatherLink 5.7,2013-04-02 01:30:00,
2013-04-01 22:00:00,34.6,17.8,29.87,West,270,2.0,9.0,50,0.00,,,-99.99,WeatherLink 5.7,2013-04-02 02:00:00,
2013-04-01 22:30:00,33.8,17.6,29.87,WNW,292,2.0,7.0,51,0.00,,,-99.99,WeatherLink 5.7,2013-04-02 02:30:00,
2013-04-01 23:00:00,33.0,18.1,29.88,West,270,1.0,6.0,54,0.00,,,-99.99,WeatherLink 5.7,2013-04-02 03:00:00,
2013-04-01 23:30:00,31.3,17.8,29.89,West,270,0.0,3.0,57,0.00,,,-99.99,WeatherLink 5.7,2013-04-02 03:30:00,